Time;durP1;ratioP1;P1;durP2;ratioP2;P2;SDS_P1;SDS_P2;PMS_P1;PMS_P2;Temp;Humidity;BMP_temperature;BMP_pressure;BME280_temperature;BME280_humidity;BME280_pressure;Samples;Min_cycle;Max_cycle;Signal;HPM_P1;HPM_P2
2021/01/08 00:00:20;;;;;;;39.95;23.40;;;;;;;-0.05;100.00;98669.59;2095416;28;20700;-73
2021/01/08 00:01:22;;;;;;;44.13;23.88;;;;;;;-0.04;100.00;98677.22;2095802;28;20214;-73
2021/01/08 00:02:22;;;;;;;38.70;23.00;;;;;;;-0.09;100.00;98674.53;2096264;28;20222;-73
2021/01/08 00:03:23;;;;;;;38.13;24.43;;;;;;;-0.11;100.00;98675.75;2096606;28;20226;-74
2021/01/08 00:04:24;;;;;;;42.78;24.17;;;;;;;-0.14;100.00;98666.56;2095339;28;20702;-73
2021/01/08 00:05:25;;;;;;;39.57;24.07;;;;;;;-0.17;100.00;98667.03;2096027;28;20696;-74
2021/01/08 00:06:26;;;;;;;40.10;23.48;;;;;;;-0.13;100.00;98669.97;2103486;28;20290;-73
2021/01/08 00:07:27;;;;;;;38.90;23.50;;;;;;;-0.09;100.00;98674.53;2104979;28;20325;-73
2021/01/08 00:08:28;;;;;;;39.03;23.45;;;;;;;-0.06;100.00;98681.09;2104154;28;20218;-73
2021/01/08 00:09:29;;;;;;;41.70;24.33;;;;;;;-0.13;100.00;98665.53;2104435;28;20225;-73
2021/01/08 00:10:30;;;;;;;39.72;23.95;;;;;;;-0.09;100.00;98677.16;2104843;28;20667;-73
2021/01/08 00:11:35;;;;;;;41.70;24.43;;;;;;;-0.12;100.00;98669.72;2105003;28;20598;-73
2021/01/08 00:12:36;;;;;;;42.55;23.77;;;;;;;-0.10;100.00;98678.16;2104980;28;20221;-73
2021/01/08 00:13:37;;;;;;;42.78;25.30;;;;;;;-0.07;100.00;98682.94;2103509;28;20225;-74
2021/01/08 00:14:38;;;;;;;38.67;24.65;;;;;;;-0.04;100.00;98677.22;2104226;28;20221;-73
2021/01/08 00:15:39;;;;;;;40.47;23.67;;;;;;;-0.05;100.00;98675.63;2104861;28;20817;-72
2021/01/08 00:16:40;;;;;;;40.08;24.77;;;;;;;-0.09;100.00;98674.53;2104930;28;20221;-73
2021/01/08 00:17:41;;;;;;;37.40;23.50;;;;;;;-0.11;100.00;98671.31;2105070;28;20221;-73
2021/01/08 00:18:43;;;;;;;40.28;24.35;;;;;;;-0.10;100.00;98672.09;2106137;28;20233;-74
2021/01/08 00:19:44;;;;;;;44.88;24.75;;;;;;;-0.13;100.00;98673.38;2105642;28;20224;-72
2021/01/08 00:20:45;;;;;;;36.78;23.98;;;;;;;-0.10;100.00;98669.50;2097416;28;20222;-73
2021/01/08 00:21:46;;;;;;;43.13;24.83;;;;;;;-0.11;100.00;98671.31;2105896;28;20260;-72
2021/01/08 00:22:47;;;;;;;44.35;24.75;;;;;;;-0.11;100.00;98671.31;2106566;28;20305;-73
2021/01/08 00:23:48;;;;;;;42.60;23.67;;;;;;;-0.11;100.00;98673.94;2106663;28;20225;-73
2021/01/08 00:24:50;;;;;;;39.55;24.20;;;;;;;-0.12;100.00;98672.34;2106607;28;20310;-73
2021/01/08 00:25:52;;;;;;;42.97;24.63;;;;;;;-0.14;100.00;98663.94;2106606;28;20214;-72
2021/01/08 00:26:54;;;;;;;41.58;24.42;;;;;;;-0.12;100.00;98664.47;2098756;28;20226;-73
2021/01/08 00:27:55;;;;;;;40.03;23.42;;;;;;;-0.16;100.00;98668.63;2088982;28;20230;-72
2021/01/08 00:28:56;;;;;;;43.65;25.27;;;;;;;-0.15;100.00;98672.84;2097164;28;20222;-72
2021/01/08 00:29:57;;;;;;;42.57;24.07;;;;;;;-0.15;100.00;98670.22;2098038;28;20229;-73
2021/01/08 00:30:58;;;;;;;40.05;23.08;;;;;;;-0.19;100.00;98660.41;2097981;28;20301;-72
2021/01/08 00:31:59;;;;;;;41.53;24.17;;;;;;;-0.14;100.00;98665.75;2098141;28;20214;-73
2021/01/08 00:33:00;;;;;;;38.15;24.65;;;;;;;-0.07;100.00;98666.41;2097040;28;20230;-72
2021/01/08 00:34:01;;;;;;;40.87;25.30;;;;;;;-0.07;100.00;98679.53;2097410;28;20822;-73
2021/01/08 00:35:03;;;;;;;42.88;24.30;;;;;;;-0.12;100.00;98672.34;2105813;28;20232;-73
2021/01/08 00:36:05;;;;;;;41.92;23.98;;;;;;;-0.17;100.00;98669.66;2105343;28;20226;-73
2021/01/08 00:37:06;;;;;;;43.63;24.85;;;;;;;-0.16;100.00;98676.50;2089090;28;20234;-73
2021/01/08 00:38:07;;;;;;;41.53;23.40;;;;;;;-0.17;100.00;98677.53;2096326;28;20675;-73
2021/01/08 00:39:09;;;;;;;40.27;24.90;;;;;;;-0.19;100.00;98668.28;2105581;28;20636;-73
2021/01/08 00:40:10;;;;;;;42.00;24.50;;;;;;;-0.19;100.00;98684.00;2100067;28;20233;-73
2021/01/08 00:41:11;;;;;;;42.80;24.52;;;;;;;-0.18;100.00;98675.91;2097960;28;20230;-72
2021/01/08 00:42:13;;;;;;;38.15;23.58;;;;;;;-0.23;100.00;98678.44;2105332;28;20241;-72
2021/01/08 00:43:14;;;;;;;38.17;22.70;;;;;;;-0.17;100.00;98671.50;2097152;28;20692;-73
2021/01/08 00:44:15;;;;;;;41.85;24.85;;;;;;;-0.20;100.00;98675.34;2097059;28;20708;-72
2021/01/08 00:45:16;;;;;;;41.85;24.77;;;;;;;-0.23;100.00;98675.84;2097778;28;20618;-73
2021/01/08 00:46:17;;;;;;;41.55;24.65;;;;;;;-0.19;100.00;98682.19;2097639;28;20222;-73
2021/01/08 00:47:19;;;;;;;37.73;23.47;;;;;;;-0.21;100.00;98679.00;2097140;28;20222;-72
2021/01/08 00:48:19;;;;;;;41.17;24.17;;;;;;;-0.20;100.00;98677.97;2088604;28;20462;-73
2021/01/08 00:49:21;;;;;;;37.47;24.60;;;;;;;-0.20;100.00;98679.81;2097159;28;20695;-72
2021/01/08 00:50:23;;;;;;;39.03;23.33;;;;;;;-0.20;100.00;98677.97;2096384;28;20230;-72
2021/01/08 00:51:24;;;;;;;43.83;23.35;;;;;;;-0.18;100.00;98681.16;2096919;28;20222;-73
2021/01/08 00:52:26;;;;;;;37.10;23.40;;;;;;;-0.14;100.00;98682.28;2096941;28;20222;-73
2021/01/08 00:53:27;;;;;;;39.17;24.47;;;;;;;-0.13;100.00;98683.88;2097236;28;20715;-73
2021/01/08 00:54:28;;;;;;;42.70;23.80;;;;;;;-0.15;100.00;98679.91;2097048;28;20573;-73
2021/01/08 00:55:46;;;;;;;40.13;23.13;;;;;;;-0.19;100.00;98682.19;2099070;28;20222;-73
2021/01/08 00:56:47;;;;;;;38.97;23.83;;;;;;;-0.17;100.00;98680.16;2089576;28;20246;-72
2021/01/08 00:58:06;;;;;;;39.63;23.83;;;;;;;-0.16;100.00;98678.31;2092721;28;20226;-72
2021/01/08 00:59:07;;;;;;;34.60;22.50;;;;;;;-0.16;100.00;98676.50;2096662;28;20237;-72
2021/01/08 01:00:09;;;;;;;38.90;24.27;;;;;;;-0.17;100.00;98687.22;2090530;28;20247;-73
2021/01/08 01:01:10;;;;;;;39.28;23.42;;;;;;;-0.20;100.00;98672.72;2088740;28;20607;-73
2021/01/08 01:02:11;;;;;;;42.70;23.97;;;;;;;-0.21;100.00;98679.00;2103966;28;20229;-72
2021/01/08 01:03:12;;;;;;;42.50;26.05;;;;;;;-0.15;100.00;98680.69;2106344;28;20228;-72
2021/01/08 01:04:13;;;;;;;37.77;22.73;;;;;;;-0.16;100.00;98684.34;2106116;28;20734;-73
2021/01/08 01:05:14;;;;;;;43.45;24.98;;;;;;;-0.18;100.00;98681.16;2106134;28;20217;-73
2021/01/08 01:06:21;;;;;;;39.70;24.87;;;;;;;-0.12;100.00;98680.22;2106202;28;20218;-72
2021/01/08 01:07:22;;;;;;;37.60;23.27;;;;;;;-0.14;100.00;98681.50;2097258;28;20226;-73
2021/01/08 01:08:23;;;;;;;41.47;24.02;;;;;;;-0.10;100.00;98682.59;2097722;28;20214;-73
2021/01/08 01:09:24;;;;;;;38.50;23.10;;;;;;;-0.11;100.00;98681.00;2097745;28;20230;-73
2021/01/08 01:10:25;;;;;;;38.63;23.35;;;;;;;-0.15;100.00;98685.16;2097565;28;20652;-73
2021/01/08 01:11:27;;;;;;;41.80;24.40;;;;;;;-0.13;100.00;98686.50;2096880;28;20233;-73
2021/01/08 01:12:28;;;;;;;42.80;24.25;;;;;;;-0.08;100.00;98689.22;2097092;28;20225;-73
2021/01/08 01:13:30;;;;;;;46.93;24.43;;;;;;;-0.06;100.00;98679.28;2097664;28;20707;-73
2021/01/08 01:14:31;;;;;;;40.58;24.77;;;;;;;-0.05;100.00;98687.94;2097566;28;20222;-73
2021/01/08 01:15:32;;;;;;;37.37;23.13;;;;;;;-0.08;100.00;98683.19;2097829;28;20217;-73
2021/01/08 01:16:33;;;;;;;42.05;24.60;;;;;;;-0.06;100.00;98702.88;2096603;28;20221;-73
2021/01/08 01:17:39;;;;;;;37.20;25.00;;;;;;;-0.18;100.00;98677.72;2096993;28;20301;-73
2021/01/08 01:18:40;;;;;;;45.58;24.35;;;;;;;-0.08;100.00;98691.84;2095913;28;20691;-72
2021/01/08 01:19:41;;;;;;;39.95;24.05;;;;;;;-0.10;100.00;98686.00;2088686;28;20301;-73
2021/01/08 01:20:42;;;;;;;38.60;24.02;;;;;;;-0.07;100.00;98700.50;2088675;28;20226;-73
2021/01/08 01:21:44;;;;;;;40.00;23.45;;;;;;;-0.08;100.00;98694.47;2096825;28;20221;-73
2021/01/08 01:22:44;;;;;;;38.58;24.38;;;;;;;-0.13;100.00;98672.59;2097644;28;20218;-72
2021/01/08 01:23:45;;;;;;;47.13;24.40;;;;;;;-0.15;100.00;98685.94;2096855;28;20222;-72
2021/01/08 01:24:46;;;;;;;44.65;25.08;;;;;;;-0.12;100.00;98679.41;2086758;28;20277;-73
2021/01/08 01:25:47;;;;;;;42.67;25.13;;;;;;;-0.12;100.00;98685.47;2104704;28;20730;-72
2021/01/08 01:26:53;;;;;;;42.53;24.30;;;;;;;-0.05;100.00;98687.94;2105417;28;20271;-73
2021/01/08 01:27:55;;;;;;;42.60;25.80;;;;;;;-0.08;100.00;98681.34;2096220;28;20229;-73
2021/01/08 01:28:57;;;;;;;50.78;24.85;;;;;;;-0.08;100.00;98680.56;2096594;28;20405;-73
2021/01/08 01:29:57;;;;;;;46.03;25.17;;;;;;;-0.08;100.00;98686.59;2095847;28;20218;-73
2021/01/08 01:30:59;;;;;;;41.90;23.17;;;;;;;-0.07;100.00;98684.75;2096689;28;20245;-72
2021/01/08 01:32:00;;;;;;;40.67;24.25;;;;;;;-0.08;100.00;98686.59;2098052;28;20733;-73
2021/01/08 01:33:01;;;;;;;42.57;23.90;;;;;;;-0.10;100.00;98678.16;2088395;28;20658;-73
2021/01/08 01:34:02;;;;;;;44.45;25.27;;;;;;;-0.12;100.00;98672.34;2088399;28;20292;-72
2021/01/08 01:35:04;;;;;;;39.87;25.83;;;;;;;0.02;100.00;98682.56;2096808;28;20263;-73
2021/01/08 01:36:07;;;;;;;48.28;25.92;;;;;;;0.01;100.00;98680.97;2097544;28;20612;-72
2021/01/08 01:37:08;;;;;;;44.65;26.38;;;;;;;-0.07;100.00;98679.53;2096199;28;20225;-73
2021/01/08 01:38:09;;;;;;;49.35;24.88;;;;;;;-0.07;100.00;98674.28;2101565;28;20229;-73
2021/01/08 01:39:10;;;;;;;43.73;25.67;;;;;;;-0.09;100.00;98669.28;2105060;28;20228;-73
2021/01/08 01:40:12;;;;;;;49.80;26.33;;;;;;;-0.05;100.00;98680.88;2089231;28;20227;-73
2021/01/08 01:41:13;;;;;;;43.78;24.63;;;;;;;-0.03;100.00;98672.75;2096741;28;20719;-73
2021/01/08 01:42:13;;;;;;;49.38;27.35;;;;;;;-0.01;100.00;98678.56;2097144;28;20234;-74
2021/01/08 01:43:15;;;;;;;45.33;27.00;;;;;;;-0.02;100.00;98680.38;2097449;28;20229;-74
2021/01/08 01:44:16;;;;;;;48.97;25.63;;;;;;;-0.09;100.00;98674.53;2096338;28;20218;-72
2021/01/08 01:45:18;;;;;;;47.63;24.85;;;;;;;-0.06;100.00;98670.63;2088438;28;20692;-73
2021/01/08 01:46:20;;;;;;;46.55;26.63;;;;;;;-0.08;100.00;98675.31;2096844;28;20225;-73
2021/01/08 01:47:22;;;;;;;47.60;26.13;;;;;;;-0.14;100.00;98668.38;2097538;28;20214;-72
2021/01/08 01:48:23;;;;;;;50.75;27.25;;;;;;;-0.09;100.00;98674.53;2104565;28;20260;-73
2021/01/08 01:49:24;;;;;;;52.08;26.73;;;;;;;-0.10;100.00;98667.66;2095921;28;20222;-73
2021/01/08 01:50:25;;;;;;;47.03;25.40;;;;;;;-0.14;100.00;98676.25;2096348;28;20609;-73
2021/01/08 01:51:27;;;;;;;44.13;25.75;;;;;;;-0.13;100.00;98668.13;2096560;28;20222;-73
2021/01/08 01:52:28;;;;;;;45.38;25.70;;;;;;;-0.11;100.00;98666.06;2104828;28;20224;-73
2021/01/08 01:53:29;;;;;;;47.03;26.80;;;;;;;-0.17;100.00;98661.00;2105823;28;20213;-72
2021/01/08 01:54:30;;;;;;;51.60;25.70;;;;;;;-0.10;100.00;98672.91;2105761;28;20250;-73
2021/01/08 01:55:32;;;;;;;45.33;24.87;;;;;;;-0.08;100.00;98675.31;2105741;28;20688;-72
2021/01/08 01:56:32;;;;;;;46.40;25.20;;;;;;;-0.12;100.00;98667.09;2104441;28;20225;-73
2021/01/08 01:57:34;;;;;;;44.83;25.60;;;;;;;-0.09;100.00;98671.91;2095668;28;20241;-73
2021/01/08 01:58:35;;;;;;;45.58;25.65;;;;;;;-0.10;100.00;98667.66;2096460;28;20221;-73
2021/01/08 01:59:37;;;;;;;49.07;26.63;;;;;;;-0.10;100.00;98672.09;2104937;28;20241;-72
2021/01/08 02:00:37;;;;;;;43.80;26.50;;;;;;;-0.11;100.00;98668.69;2105191;28;20456;-72
2021/01/08 02:01:38;;;;;;;42.17;25.30;;;;;;;-0.12;100.00;98669.72;2105749;28;20286;-73
2021/01/08 02:02:41;;;;;;;45.15;26.10;;;;;;;-0.18;100.00;98662.00;2104712;28;20257;-72
2021/01/08 02:03:47;;;;;;;50.42;27.50;;;;;;;-0.12;100.00;98661.06;2104524;28;20233;-73
2021/01/08 02:04:48;;;;;;;49.92;26.70;;;;;;;-0.11;100.00;98663.44;2104891;28;20259;-72
2021/01/08 02:05:50;;;;;;;46.65;26.60;;;;;;;-0.17;100.00;98651.31;2104749;28;20308;-72
2021/01/08 02:06:51;;;;;;;43.72;26.00;;;;;;;-0.08;100.00;98649.88;2104882;28;20225;-72
2021/01/08 02:07:58;;;;;;;64.10;28.97;;;;;;;-0.07;100.00;98656.72;2105176;28;20694;-74
2021/01/08 02:09:02;;;;;;;47.42;25.80;;;;;;;-0.11;100.00;98647.72;2104780;28;20550;-73
2021/01/08 02:10:04;;;;;;;48.20;26.52;;;;;;;-0.08;100.00;98649.88;2096520;28;20230;-73
2021/01/08 02:11:07;;;;;;;42.50;26.15;;;;;;;-0.11;100.00;98647.72;2104965;28;20228;-73
2021/01/08 02:12:08;;;;;;;45.53;26.85;;;;;;;-0.13;100.00;98644.53;2103873;28;20225;-72
2021/01/08 02:13:12;;;;;;;47.42;26.50;;;;;;;-0.13;100.00;98646.38;2104824;28;20229;-73
2021/01/08 02:14:18;;;;;;;50.30;26.58;;;;;;;-0.12;100.00;98643.50;2105562;28;20220;-72
2021/01/08 02:15:20;;;;;;;42.90;25.35;;;;;;;-0.06;100.00;98647.03;2105667;28;20590;-72
2021/01/08 02:16:22;;;;;;;46.80;26.13;;;;;;;-0.09;100.00;98648.31;2105376;28;20237;-72
2021/01/08 02:17:23;;;;;;;45.40;26.58;;;;;;;-0.08;100.00;98647.25;2105141;28;20558;-73
2021/01/08 02:18:27;;;;;;;50.10;26.30;;;;;;;-0.11;100.00;98639.06;2105520;28;20318;-72
2021/01/08 02:19:31;;;;;;;46.25;25.90;;;;;;;-0.09;100.00;98637.81;2105487;28;20443;-73
2021/01/08 02:20:33;;;;;;;46.90;26.30;;;;;;;-0.15;100.00;98632.72;2104728;28;20610;-72
2021/01/08 02:21:49;;;;;;;43.33;25.08;;;;;;;0.02;100.00;98643.22;2104724;28;20217;-72
2021/01/08 02:22:54;;;;;;;39.08;24.23;;;;;;;-0.06;100.00;98642.56;2104315;28;20744;-72
2021/01/08 02:23:59;;;;;;;38.22;23.42;;;;;;;-0.08;100.00;98636.78;2103978;28;20213;-73
2021/01/08 02:25:10;;;;;;;43.65;24.13;;;;;;;-0.10;100.00;98651.94;2095734;28;20232;-73
2021/01/08 02:26:12;;;;;;;43.95;24.77;;;;;;;-0.17;100.00;98640.81;2090365;28;20265;-73
2021/01/08 02:27:13;;;;;;;47.35;25.35;;;;;;;-0.22;100.00;98637.31;2096309;28;20226;-73
2021/01/08 02:28:20;;;;;;;46.63;25.52;;;;;;;-0.25;100.00;98635.97;2096252;28;20218;-74
2021/01/08 02:29:22;;;;;;;42.03;23.17;;;;;;;-0.23;100.00;98639.13;2088668;28;20230;-73
2021/01/08 02:30:22;;;;;;;42.97;24.75;;;;;;;-0.25;100.00;98641.19;2095882;28;20688;-73
2021/01/08 02:31:24;;;;;;;41.80;25.27;;;;;;;-0.28;100.00;98641.66;2095802;28;20721;-73
2021/01/08 02:32:25;;;;;;;43.00;24.15;;;;;;;-0.28;100.00;98642.44;2096310;28;20630;-72
2021/01/08 02:33:26;;;;;;;40.63;22.67;;;;;;;-0.27;100.00;98640.63;2097017;28;20241;-73
2021/01/08 02:34:28;;;;;;;42.10;23.50;;;;;;;-0.29;100.00;98637.44;2096901;28;20283;-73
2021/01/08 02:35:29;;;;;;;39.33;22.30;;;;;;;-0.29;100.00;98645.31;2096912;28;20218;-73
2021/01/08 02:36:31;;;;;;;37.25;22.52;;;;;;;-0.32;100.00;98632.69;2096249;28;20226;-73
2021/01/08 02:37:42;;;;;;;36.90;22.60;;;;;;;-0.33;100.00;98631.09;2087893;28;20218;-73
2021/01/08 02:38:43;;;;;;;37.90;23.08;;;;;;;-0.27;100.00;98640.63;2096928;28;20222;-73
2021/01/08 02:39:44;;;;;;;37.88;22.15;;;;;;;-0.29;100.00;98642.69;2096291;28;20620;-72
2021/01/08 02:40:48;;;;;;;40.05;23.35;;;;;;;-0.27;100.00;98638.00;2095842;28;20233;-73
2021/01/08 02:41:51;;;;;;;44.80;24.70;;;;;;;-0.27;100.00;98643.25;2104545;28;20564;-72
2021/01/08 02:42:56;;;;;;;41.03;22.63;;;;;;;-0.35;100.00;98623.47;2104834;28;20225;-73
2021/01/08 02:43:58;;;;;;;38.28;24.17;;;;;;;-0.29;100.00;98626.97;2105387;28;20233;-73
2021/01/08 02:44:59;;;;;;;46.15;25.83;;;;;;;-0.28;100.00;98639.03;2104141;28;20239;-73
2021/01/08 02:46:00;;;;;;;38.20;22.50;;;;;;;-0.30;100.00;98641.91;2104553;28;20721;-73
2021/01/08 02:47:01;;;;;;;33.85;21.83;;;;;;;-0.46;100.00;98616.44;2112885;28;20743;-73
2021/01/08 02:48:02;;;;;;;36.97;21.65;;;;;;;-0.32;100.00;98630.84;2105251;28;20675;-72
2021/01/08 02:49:04;;;;;;;37.72;21.58;;;;;;;-0.31;100.00;98639.50;2104430;28;20275;-73
2021/01/08 02:50:06;;;;;;;38.58;22.08;;;;;;;-0.36;100.00;98628.94;2093605;28;20570;-73
2021/01/08 02:51:07;;;;;;;32.03;20.77;;;;;;;-0.30;100.00;98635.84;2089642;28;20313;-75
2021/01/08 02:52:08;;;;;;;39.78;22.63;;;;;;;-0.29;100.00;98640.06;2096143;28;20230;-73
2021/01/08 02:53:12;;;;;;;36.30;23.00;;;;;;;-0.45;100.00;98612.00;2095952;28;20234;-70
2021/01/08 02:54:13;;;;;;;43.28;24.40;;;;;;;-0.29;100.00;98637.44;2087537;28;20214;-71
2021/01/08 02:55:17;;;;;;;39.90;23.40;;;;;;;-0.39;100.00;98618.94;2096093;28;20225;-72
2021/01/08 02:56:23;;;;;;;37.63;22.67;;;;;;;-0.25;100.00;98638.59;2096881;28;20726;-72
2021/01/08 02:57:25;;;;;;;41.00;24.67;;;;;;;-0.33;100.00;98620.63;2096490;28;20241;-71
2021/01/08 02:58:26;;;;;;;40.00;24.15;;;;;;;-0.31;100.00;98631.66;2095846;28;20234;-72
2021/01/08 02:59:27;;;;;;;39.85;24.02;;;;;;;-0.34;100.00;98627.69;2095977;28;20236;-71
2021/01/08 03:00:29;;;;;;;44.70;26.10;;;;;;;-0.29;100.00;98632.19;2096177;28;20221;-71
2021/01/08 03:01:30;;;;;;;36.38;23.42;;;;;;;-0.30;100.00;98635.84;2087229;28;20226;-72
2021/01/08 03:02:32;;;;;;;37.42;23.25;;;;;;;-0.30;100.00;98634.03;2091205;28;20248;-72
2021/01/08 03:03:33;;;;;;;43.47;24.65;;;;;;;-0.33;100.00;98631.09;2101862;28;20225;-72
2021/01/08 03:04:34;;;;;;;43.90;25.52;;;;;;;-0.27;100.00;98635.38;2097130;28;20221;-71
2021/01/08 03:05:35;;;;;;;42.17;24.73;;;;;;;-0.24;100.00;98640.16;2095813;28;20688;-72
2021/01/08 03:06:39;;;;;;;46.92;25.08;;;;;;;-0.28;100.00;98631.16;2095937;28;20217;-72
2021/01/08 03:07:41;;;;;;;45.38;25.58;;;;;;;-0.25;100.00;98635.97;2103797;28;20217;-72
2021/01/08 03:08:42;;;;;;;45.33;24.83;;;;;;;-0.20;100.00;98628.16;2103712;28;20229;-71
2021/01/08 03:09:43;;;;;;;40.67;23.00;;;;;;;-0.18;100.00;98635.78;2105006;28;20256;-72
2021/01/08 03:10:44;;;;;;;42.30;24.30;;;;;;;-0.24;100.00;98634.94;2105161;28;20338;-71
2021/01/08 03:11:51;;;;;;;43.30;24.00;;;;;;;-0.26;100.00;98631.75;2103721;28;20299;-72
2021/01/08 03:12:55;;;;;;;44.50;24.85;;;;;;;-0.26;100.00;98637.00;2104130;28;20221;-73
2021/01/08 03:13:56;;;;;;;47.80;24.75;;;;;;;-0.22;100.00;98639.94;2105205;28;20304;-72
2021/01/08 03:14:58;;;;;;;45.67;25.63;;;;;;;-0.22;100.00;98630.22;2105126;28;20600;-71
2021/01/08 03:15:59;;;;;;;41.20;24.55;;;;;;;-0.32;100.00;98624.81;2104177;28;20229;-72
2021/01/08 03:17:00;;;;;;;43.80;24.17;;;;;;;-0.26;100.00;98638.78;2104392;28;20757;-71
2021/01/08 03:18:01;;;;;;;44.00;24.77;;;;;;;-0.26;100.00;98639.63;2105112;28;20699;-71
2021/01/08 03:19:02;;;;;;;45.08;23.58;;;;;;;-0.28;100.00;98639.81;2105193;28;20221;-71
2021/01/08 03:20:04;;;;;;;44.57;24.37;;;;;;;-0.27;100.00;98643.25;2105273;28;20249;-71
2021/01/08 03:21:04;;;;;;;43.47;24.30;;;;;;;-0.28;100.00;98639.03;2105299;28;20701;-71
2021/01/08 03:22:06;;;;;;;43.73;24.80;;;;;;;-0.28;100.00;98637.22;2104462;28;20673;-71
2021/01/08 03:23:08;;;;;;;42.97;24.58;;;;;;;-0.28;100.00;98633.78;2089532;28;20235;-74
2021/01/08 03:24:09;;;;;;;44.53;22.98;;;;;;;-0.26;100.00;98644.03;2096020;28;20249;-72
2021/01/08 03:25:11;;;;;;;39.50;22.98;;;;;;;-0.26;100.00;98641.41;2096792;28;20222;-71
2021/01/08 03:26:12;;;;;;;40.08;24.17;;;;;;;-0.31;100.00;98634.28;2096554;28;20321;-71
2021/01/08 03:27:13;;;;;;;40.28;24.50;;;;;;;-0.26;100.00;98644.84;2096641;28;20222;-71
2021/01/08 03:28:15;;;;;;;45.30;24.95;;;;;;;-0.29;100.00;98637.44;2095985;28;20273;-71
2021/01/08 03:29:15;;;;;;;41.70;24.08;;;;;;;-0.25;100.00;98648.28;2096171;28;20229;-71
2021/01/08 03:30:18;;;;;;;41.93;23.27;;;;;;;-0.26;100.00;98637.00;2096723;28;20222;-71
2021/01/08 03:31:18;;;;;;;42.13;24.50;;;;;;;-0.29;100.00;98642.69;2096744;28;20271;-71
2021/01/08 03:32:19;;;;;;;41.10;23.97;;;;;;;-0.35;100.00;98636.59;2096604;28;20221;-72
2021/01/08 03:33:20;;;;;;;41.67;24.40;;;;;;;-0.32;100.00;98645.78;2096687;28;20225;-71
2021/01/08 03:34:21;;;;;;;43.97;25.67;;;;;;;-0.34;100.00;98640.00;2096784;28;20222;-71
2021/01/08 03:35:22;;;;;;;38.17;23.88;;;;;;;-0.33;100.00;98642.38;2103836;28;20222;-72
2021/01/08 03:36:23;;;;;;;41.13;23.53;;;;;;;-0.34;100.00;98640.00;2104344;28;20248;-71
2021/01/08 03:37:24;;;;;;;41.13;24.00;;;;;;;-0.42;100.00;98637.75;2095945;28;20633;-71
2021/01/08 03:38:25;;;;;;;42.07;24.43;;;;;;;-0.38;100.00;98644.09;2095379;28;20222;-71
2021/01/08 03:39:26;;;;;;;40.42;24.52;;;;;;;-0.36;100.00;98652.50;2104350;28;20217;-71
2021/01/08 03:40:27;;;;;;;43.77;24.23;;;;;;;-0.36;100.00;98647.28;2096649;28;20257;-70
2021/01/08 03:41:28;;;;;;;36.97;22.88;;;;;;;-0.36;100.00;98652.50;2096723;28;20218;-71
2021/01/08 03:42:30;;;;;;;39.50;22.33;;;;;;;-0.38;100.00;98651.97;2096643;28;20264;-71
2021/01/08 03:43:30;;;;;;;37.25;22.83;;;;;;;-0.42;100.00;98633.31;2095957;28;20214;-72
2021/01/08 03:44:32;;;;;;;46.70;23.63;;;;;;;-0.37;100.00;98643.84;2096070;28;20297;-71
2021/01/08 03:45:32;;;;;;;40.58;23.73;;;;;;;-0.40;100.00;98641.72;2096671;28;20356;-71
2021/01/08 03:46:36;;;;;;;38.97;22.97;;;;;;;-0.36;100.00;98645.44;2096665;28;20268;-71
2021/01/08 03:47:37;;;;;;;40.25;24.25;;;;;;;-0.39;100.00;98645.13;2096423;28;20252;-72
2021/01/08 03:48:39;;;;;;;42.50;24.20;;;;;;;-0.42;100.00;98646.41;2095757;28;20225;-72
2021/01/08 03:49:40;;;;;;;40.80;23.25;;;;;;;-0.34;100.00;98640.00;2096151;28;20222;-71
2021/01/08 03:50:41;;;;;;;37.83;23.27;;;;;;;-0.35;100.00;98649.69;2096588;28;20240;-74
2021/01/08 03:51:42;;;;;;;38.00;22.83;;;;;;;-0.39;100.00;98650.38;2096826;28;20687;-71
2021/01/08 03:52:43;;;;;;;38.03;24.27;;;;;;;-0.39;100.00;98658.25;2095772;28;20644;-71
2021/01/08 03:53:44;;;;;;;37.10;23.27;;;;;;;-0.41;100.00;98655.84;2097333;28;20229;-71
2021/01/08 03:54:45;;;;;;;42.95;24.70;;;;;;;-0.41;100.00;98644.56;2105832;28;20292;-71
2021/01/08 03:55:46;;;;;;;40.20;23.05;;;;;;;-0.42;100.00;98654.28;2105044;28;20598;-71
2021/01/08 03:56:47;;;;;;;40.10;22.93;;;;;;;-0.36;100.00;98653.31;2105950;28;20263;-71
2021/01/08 03:57:49;;;;;;;41.40;24.02;;;;;;;-0.39;100.00;98647.75;2105681;28;20225;-72
2021/01/08 03:58:50;;;;;;;40.28;23.50;;;;;;;-0.45;100.00;98643.44;2105935;28;20696;-71
2021/01/08 03:59:51;;;;;;;39.58;23.52;;;;;;;-0.38;100.00;98644.91;2106629;28;20217;-71
2021/01/08 04:00:52;;;;;;;41.57;22.83;;;;;;;-0.32;100.00;98654.44;2102844;28;20228;-71
2021/01/08 04:01:52;;;;;;;43.25;23.45;;;;;;;-0.32;100.00;98643.16;2105474;28;20231;-72
2021/01/08 04:02:54;;;;;;;41.70;23.03;;;;;;;-0.35;100.00;98649.69;2106250;28;20311;-71
2021/01/08 04:03:54;;;;;;;39.97;23.95;;;;;;;-0.42;100.00;98649.03;2106349;28;20694;-71
2021/01/08 04:04:56;;;;;;;38.03;23.77;;;;;;;-0.48;100.00;98646.53;2106520;28;20650;-71
2021/01/08 04:05:56;;;;;;;41.35;25.27;;;;;;;-0.45;100.00;98653.94;2106678;28;23443;-71
2021/01/08 04:06:57;;;;;;;40.50;25.27;;;;;;;-0.61;100.00;98631.88;2106597;28;20225;-72
2021/01/08 04:07:58;;;;;;;40.45;24.48;;;;;;;-0.50;100.00;98649.41;2105459;28;20213;-71
2021/01/08 04:08:59;;;;;;;42.33;24.20;;;;;;;-0.52;100.00;98643.59;2105881;28;20264;-71
2021/01/08 04:10:01;;;;;;;42.17;24.27;;;;;;;-0.51;100.00;98654.88;2105017;28;20684;-71
2021/01/08 04:11:01;;;;;;;42.72;26.35;;;;;;;-0.58;100.00;98640.09;2096527;28;20645;-71
2021/01/08 04:12:03;;;;;;;44.83;26.57;;;;;;;-0.53;100.00;98649.84;2105668;28;20294;-72
2021/01/08 04:13:04;;;;;;;42.97;27.67;;;;;;;-0.60;100.00;98646.59;2106550;28;20225;-71
2021/01/08 04:14:06;;;;;;;39.67;25.90;;;;;;;-0.63;100.00;98642.59;2105500;28;20248;-71
2021/01/08 04:15:07;;;;;;;40.97;25.38;;;;;;;-0.53;100.00;98647.22;2105741;28;20228;-72
2021/01/08 04:16:08;;;;;;;37.80;23.95;;;;;;;-0.52;100.00;98642.78;2105609;28;20752;-72
2021/01/08 04:17:09;;;;;;;41.10;25.48;;;;;;;-0.63;100.00;98633.94;2105570;28;20703;-71
2021/01/08 04:18:10;;;;;;;37.60;25.30;;;;;;;-0.55;100.00;98638.03;2097061;28;20626;-71
2021/01/08 04:19:11;;;;;;;42.08;25.20;;;;;;;-0.52;100.00;98646.22;2105581;28;20679;-71
2021/01/08 04:20:14;;;;;;;40.63;25.97;;;;;;;-0.54;100.00;98639.59;2106395;28;20583;-71
2021/01/08 04:21:15;;;;;;;43.25;25.05;;;;;;;-0.51;100.00;98644.41;2106259;28;20627;-71
2021/01/08 04:22:16;;;;;;;40.60;26.03;;;;;;;-0.50;100.00;98640.75;2105599;28;20301;-71
2021/01/08 04:23:17;;;;;;;39.53;24.77;;;;;;;-0.49;100.00;98642.34;2097000;28;20456;-72
2021/01/08 04:24:18;;;;;;;35.67;24.10;;;;;;;-0.48;100.00;98642.09;2097309;28;20739;-71
2021/01/08 04:25:19;;;;;;;38.70;24.73;;;;;;;-0.47;100.00;98641.06;2097676;28;20700;-71
2021/01/08 04:26:20;;;;;;;36.40;24.27;;;;;;;-0.48;100.00;98643.91;2098121;28;20622;-73
2021/01/08 04:27:21;;;;;;;42.38;26.27;;;;;;;-0.45;100.00;98643.44;2097201;28;20241;-71
2021/01/08 04:28:23;;;;;;;39.50;24.53;;;;;;;-0.46;100.00;98645.28;2097240;28;20288;-74
2021/01/08 04:29:23;;;;;;;33.67;23.67;;;;;;;-0.52;100.00;98624.44;2100972;28;20225;-72
2021/01/08 04:30:25;;;;;;;36.33;24.57;;;;;;;-0.47;100.00;98630.59;2101404;28;20221;-72
2021/01/08 04:31:25;;;;;;;38.03;25.73;;;;;;;-0.55;100.00;98623.09;2105564;28;20229;-72
2021/01/08 04:32:27;;;;;;;44.10;25.97;;;;;;;-0.48;100.00;98631.63;2105773;28;20699;-72
2021/01/08 04:33:27;;;;;;;38.50;24.95;;;;;;;-0.41;100.00;98639.34;2105413;28;20739;-72
2021/01/08 04:34:29;;;;;;;37.13;25.60;;;;;;;-0.40;100.00;98635.69;2097294;28;20587;-72
2021/01/08 04:35:29;;;;;;;39.20;25.20;;;;;;;-0.44;100.00;98626.69;2105588;28;20700;-71
2021/01/08 04:36:31;;;;;;;38.13;25.63;;;;;;;-0.41;100.00;98640.13;2106525;28;20668;-72
2021/01/08 04:37:31;;;;;;;34.33;23.95;;;;;;;-0.49;100.00;98634.47;2106381;28;20561;-72
2021/01/08 04:38:32;;;;;;;39.53;25.67;;;;;;;-0.42;100.00;98628.06;2105205;28;20292;-72
2021/01/08 04:39:33;;;;;;;41.08;25.63;;;;;;;-0.41;100.00;98634.09;2097128;28;20224;-72
2021/01/08 04:40:35;;;;;;;41.53;25.70;;;;;;;-0.38;100.00;98641.47;2096986;28;20218;-71